Audrey — PD9331 — position and weather

sailwx.info

Track history (hours):
 
Tides and Currents Weather Stations Pressure Air Temp Water Temp Dewpoint Dewpoint Depression Visibility Wind Speed Wind Dir Waves Ship Positions

Audrey

Last reported at 2015-Mar-31 14:33 UTC. Time now 2015-Mar-31 15:30 UTC.
Position N 51°42' E 005°17'.

Length 85 m; draft 2.3 m.

Type: Other ship. MMSI: 244660106.

Date/timePositionNaut miles runAvg speedWind from/ knotsBaromVisibWave heightAir tempDewpointWater temp
2015-Mar-31 14:33N 51°42' E 005°17'0 0.0
2015-Mar-31 13:33N 51°42' E 005°17'0 0.0
2015-Mar-31 12:33N 51°42' E 005°17'0 0.0
2015-Mar-31 11:33N 51°42' E 005°17'0 0.0
2015-Mar-31 10:33N 51°42' E 005°17'0 0.0
2015-Mar-31 09:33N 51°42' E 005°17'0 0.0
2015-Mar-31 08:32N 51°42' E 005°17'0 0.0
2015-Mar-31 07:31N 51°42' E 005°17'0 0.0
2015-Mar-31 06:33N 51°42' E 005°17'0 0.0
2015-Mar-31 05:30N 51°42' E 005°17'0 0.4
2015-Mar-31 04:33N 51°42' E 005°17'1 0.7
2015-Mar-31 03:33N 51°43' E 005°16'0 0.0
2015-Mar-31 02:33N 51°43' E 005°16'0 0.0
2015-Mar-31 01:33N 51°43' E 005°16'0 0.0
2015-Mar-31 00:33N 51°43' E 005°16'0 0.0
2015-Mar-30 23:33N 51°43' E 005°16'0 0.0
2015-Mar-30 22:33N 51°43' E 005°16'0 0.0
2015-Mar-30 21:33N 51°43' E 005°16'0 0.0
2015-Mar-30 20:33N 51°43' E 005°16'0 0.0
2015-Mar-30 19:33N 51°43' E 005°16'0 0.0
2015-Mar-30 18:33N 51°43' E 005°16'0 0.0
2015-Mar-30 17:33N 51°43' E 005°16'0 0.0
2015-Mar-30 16:33N 51°43' E 005°16'0 0.0
2015-Mar-30 15:30N 51°43' E 005°16'0 0.0
2015-Mar-30 14:33N 51°43' E 005°16'0 0.0
2015-Mar-30 13:33N 51°43' E 005°16'0 0.0
2015-Mar-30 12:33N 51°43' E 005°16'0 0.0
2015-Mar-30 11:33N 51°43' E 005°16'0 0.0
2015-Mar-30 10:32N 51°43' E 005°16'0 0.0
2015-Mar-30 09:33N 51°43' E 005°16'0 0.0
2015-Mar-30 08:33N 51°43' E 005°16'0 0.0
2015-Mar-30 07:33N 51°43' E 005°16'0 0.0
2015-Mar-30 06:34N 51°43' E 005°16'0 0.0
2015-Mar-30 05:33N 51°43' E 005°16'0 0.0
2015-Mar-30 04:33N 51°43' E 005°16'0 0.0
2015-Mar-30 03:33N 51°43' E 005°16'0 0.0
2015-Mar-30 02:33N 51°43' E 005°16'0 0.0
2015-Mar-30 01:33N 51°43' E 005°16'0 0.0
2015-Mar-30 00:33N 51°43' E 005°16'0 0.0
2015-Mar-29 23:33N 51°43' E 005°16'0 0.0
2015-Mar-29 22:33N 51°43' E 005°16'0 0.0
2015-Mar-29 21:33N 51°43' E 005°16'0 0.0
2015-Mar-29 20:33N 51°43' E 005°16'0 0.0
2015-Mar-29 19:33N 51°43' E 005°16'0 0.0
2015-Mar-29 18:33N 51°43' E 005°16'0 0.0
2015-Mar-29 17:33N 51°43' E 005°16'0 0.0
2015-Mar-29 16:33N 51°43' E 005°16'0 0.0
2015-Mar-29 15:33N 51°43' E 005°16'0 0.0
2015-Mar-29 14:33N 51°43' E 005°16'0 0.0
2015-Mar-29 13:32N 51°43' E 005°16'0 0.0
2015-Mar-29 12:33N 51°43' E 005°16'0 0.0
2015-Mar-29 11:33N 51°43' E 005°16'0 0.0
2015-Mar-29 10:33N 51°43' E 005°16'0 0.0
2015-Mar-29 09:30N 51°43' E 005°16'1 0.6
2015-Mar-29 08:33N 51°44' E 005°16'0 0.1
2015-Mar-29 07:33N 51°44' E 005°16'0 0.0
2015-Mar-29 06:33N 51°44' E 005°16'0 0.0
2015-Mar-29 05:33N 51°44' E 005°16'0 0.0
2015-Mar-29 04:33N 51°44' E 005°16'0 0.0
2015-Mar-29 03:33N 51°44' E 005°16'0 0.0
2015-Mar-29 02:33N 51°44' E 005°16'0 0.0
2015-Mar-29 01:33N 51°44' E 005°16'0 0.0
2015-Mar-29 00:33N 51°44' E 005°16'0 0.0
2015-Mar-28 23:33N 51°44' E 005°16'0 0.0
2015-Mar-28 22:33N 51°44' E 005°16'0 0.0
2015-Mar-28 21:33N 51°44' E 005°16'0 0.3
2015-Mar-28 20:33N 51°44' E 005°15'0 0.0
2015-Mar-28 19:33N 51°44' E 005°15'0 0.0
2015-Mar-28 18:33N 51°44' E 005°15'0 0.0
2015-Mar-28 17:31N 51°44' E 005°15'0 0.0
2015-Mar-28 16:33N 51°44' E 005°15'0 0.0
2015-Mar-28 15:32N 51°44' E 005°15'3 2.9
2015-Mar-28 14:33N 51°45' E 005°20'4 3.6
2015-Mar-28 13:34N 51°48' E 005°22'8 8.0
2015-Mar-28 12:33N 51°54' E 005°32'9 8.8
2015-Mar-28 11:28N 51°53' E 005°47'38 6.9
2015-Mar-28 06:04N 51°35' E 006°40'5 7.2
2015-Mar-28 05:20N 51°30' E 006°43'12 1.3
2015-Mar-27 20:33N 51°18' E 006°44'4 4.5
2015-Mar-27 19:33N 51°14' E 006°44'6 5.8
2015-Mar-27 18:33N 51°10' E 006°50'15 7.5
2015-Mar-27 16:30N 50°55' E 006°58'101 5.6
2015-Mar-26 22:27N 51°49' E 004°42'20640.6
2015-Mar-26 17:23N 49°23' E 008°30'6 6.9
2015-Mar-26 16:33N 49°17' E 008°28'9 8.7
2015-Mar-26 15:33N 49°09' E 008°22'10 9.6
2015-Mar-26 14:33N 49°00' E 008°17'10 9.7
2015-Mar-26 13:30N 48°52' E 008°08'6 5.8
2015-Mar-26 12:33N 48°47' E 008°04'8 8.4
2015-Mar-26 11:32N 48°41' E 007°55'  
Track history (hours):
 
Tides and Currents Weather Stations Pressure Air Temp Water Temp Dewpoint Dewpoint Depression Visibility Wind Speed Wind Dir Waves Ship Positions

Audrey

Last reported at 2015-Mar-31 14:33 UTC. Time now 2015-Mar-31 15:30 UTC.
Position N 51°42' E 005°17'.

Length 85 m; draft 2.3 m.

Type: Other ship. MMSI: 244660106.

Date/timePositionNaut miles runAvg speedWind from/ knotsBaromVisibWave heightAir tempDewpointWater temp
2015-Mar-31 14:33N 51°42' E 005°17'0 0.0
2015-Mar-31 13:33N 51°42' E 005°17'0 0.0
2015-Mar-31 12:33N 51°42' E 005°17'0 0.0
2015-Mar-31 11:33N 51°42' E 005°17'0 0.0
2015-Mar-31 10:33N 51°42' E 005°17'0 0.0
2015-Mar-31 09:33N 51°42' E 005°17'0 0.0
2015-Mar-31 08:32N 51°42' E 005°17'0 0.0
2015-Mar-31 07:31N 51°42' E 005°17'0 0.0
2015-Mar-31 06:33N 51°42' E 005°17'0 0.0
2015-Mar-31 05:30N 51°42' E 005°17'0 0.4
2015-Mar-31 04:33N 51°42' E 005°17'1 0.7
2015-Mar-31 03:33N 51°43' E 005°16'0 0.0
2015-Mar-31 02:33N 51°43' E 005°16'0 0.0
2015-Mar-31 01:33N 51°43' E 005°16'0 0.0
2015-Mar-31 00:33N 51°43' E 005°16'0 0.0
2015-Mar-30 23:33N 51°43' E 005°16'0 0.0
2015-Mar-30 22:33N 51°43' E 005°16'0 0.0
2015-Mar-30 21:33N 51°43' E 005°16'0 0.0
2015-Mar-30 20:33N 51°43' E 005°16'0 0.0
2015-Mar-30 19:33N 51°43' E 005°16'0 0.0
2015-Mar-30 18:33N 51°43' E 005°16'0 0.0
2015-Mar-30 17:33N 51°43' E 005°16'0 0.0
2015-Mar-30 16:33N 51°43' E 005°16'0 0.0
2015-Mar-30 15:30N 51°43' E 005°16'0 0.0
2015-Mar-30 14:33N 51°43' E 005°16'0 0.0
2015-Mar-30 13:33N 51°43' E 005°16'0 0.0
2015-Mar-30 12:33N 51°43' E 005°16'0 0.0
2015-Mar-30 11:33N 51°43' E 005°16'0 0.0
2015-Mar-30 10:32N 51°43' E 005°16'0 0.0
2015-Mar-30 09:33N 51°43' E 005°16'0 0.0
2015-Mar-30 08:33N 51°43' E 005°16'0 0.0
2015-Mar-30 07:33N 51°43' E 005°16'0 0.0
2015-Mar-30 06:34N 51°43' E 005°16'0 0.0
2015-Mar-30 05:33N 51°43' E 005°16'0 0.0
2015-Mar-30 04:33N 51°43' E 005°16'0 0.0
2015-Mar-30 03:33N 51°43' E 005°16'0 0.0
2015-Mar-30 02:33N 51°43' E 005°16'0 0.0
2015-Mar-30 01:33N 51°43' E 005°16'0 0.0
2015-Mar-30 00:33N 51°43' E 005°16'0 0.0
2015-Mar-29 23:33N 51°43' E 005°16'0 0.0
2015-Mar-29 22:33N 51°43' E 005°16'0 0.0
2015-Mar-29 21:33N 51°43' E 005°16'0 0.0
2015-Mar-29 20:33N 51°43' E 005°16'0 0.0
2015-Mar-29 19:33N 51°43' E 005°16'0 0.0
2015-Mar-29 18:33N 51°43' E 005°16'0 0.0
2015-Mar-29 17:33N 51°43' E 005°16'0 0.0
2015-Mar-29 16:33N 51°43' E 005°16'0 0.0
2015-Mar-29 15:33N 51°43' E 005°16'0 0.0
2015-Mar-29 14:33N 51°43' E 005°16'0 0.0
2015-Mar-29 13:32N 51°43' E 005°16'0 0.0
2015-Mar-29 12:33N 51°43' E 005°16'0 0.0
2015-Mar-29 11:33N 51°43' E 005°16'0 0.0
2015-Mar-29 10:33N 51°43' E 005°16'0 0.0
2015-Mar-29 09:30N 51°43' E 005°16'1 0.6
2015-Mar-29 08:33N 51°44' E 005°16'0 0.1
2015-Mar-29 07:33N 51°44' E 005°16'0 0.0
2015-Mar-29 06:33N 51°44' E 005°16'0 0.0
2015-Mar-29 05:33N 51°44' E 005°16'0 0.0
2015-Mar-29 04:33N 51°44' E 005°16'0 0.0
2015-Mar-29 03:33N 51°44' E 005°16'0 0.0
2015-Mar-29 02:33N 51°44' E 005°16'0 0.0
2015-Mar-29 01:33N 51°44' E 005°16'0 0.0
2015-Mar-29 00:33N 51°44' E 005°16'0 0.0
2015-Mar-28 23:33N 51°44' E 005°16'0 0.0
2015-Mar-28 22:33N 51°44' E 005°16'0 0.0
2015-Mar-28 21:33N 51°44' E 005°16'0 0.3
2015-Mar-28 20:33N 51°44' E 005°15'0 0.0
2015-Mar-28 19:33N 51°44' E 005°15'0 0.0
2015-Mar-28 18:33N 51°44' E 005°15'0 0.0
2015-Mar-28 17:31N 51°44' E 005°15'0 0.0
2015-Mar-28 16:33N 51°44' E 005°15'0 0.0
2015-Mar-28 15:32N 51°44' E 005°15'3 2.9
2015-Mar-28 14:33N 51°45' E 005°20'4 3.6
2015-Mar-28 13:34N 51°48' E 005°22'8 8.0
2015-Mar-28 12:33N 51°54' E 005°32'9 8.8
2015-Mar-28 11:28N 51°53' E 005°47'38 6.9
2015-Mar-28 06:04N 51°35' E 006°40'5 7.2
2015-Mar-28 05:20N 51°30' E 006°43'12 1.3
2015-Mar-27 20:33N 51°18' E 006°44'4 4.5
2015-Mar-27 19:33N 51°14' E 006°44'6 5.8
2015-Mar-27 18:33N 51°10' E 006°50'15 7.5
2015-Mar-27 16:30N 50°55' E 006°58'101 5.6
2015-Mar-26 22:27N 51°49' E 004°42'20640.6
2015-Mar-26 17:23N 49°23' E 008°30'6 6.9
2015-Mar-26 16:33N 49°17' E 008°28'9 8.7
2015-Mar-26 15:33N 49°09' E 008°22'10 9.6
2015-Mar-26 14:33N 49°00' E 008°17'10 9.7
2015-Mar-26 13:30N 48°52' E 008°08'6 5.8
2015-Mar-26 12:33N 48°47' E 008°04'8 8.4
2015-Mar-26 11:32N 48°41' E 007°55'  

Dump ship's entire track history